Tallahassee, Florida
Current Conditions -  °F | °C
As of 10:53 AM on Sunday 25 Jan 2015 (Local Time) from KTLH Reporting Station
Few Clouds Few Clouds  
Wind Chill: 53°   Ceiling: Unl
Heat Index: 53°   Visibility: 10mi
Dew Point: 35°   Wind: 6mph
Humidity: 50%   Direction: 210°SSW
Pressure: 30.09"   Gusts: NA
Location:  30.44°N, 84.28°W
Report Text: KTLH 251553Z 21005KT 10SM FEW250 12/02 A3009 RMK AO2 SLP188 T01170017 $
Loading
Personal Weather Stations






























Interactive Weather Map New forecast layout! Learn more

10-Day Weather Forecast

Advertisements
Track Severe Weather on mobile